Time;durP1;ratioP1;P1;durP2;ratioP2;P2;SDS_P1;SDS_P2;PMS_P1;PMS_P2;Temp;Humidity;BMP_temperature;BMP_pressure;BME280_temperature;BME280_humidity;BME280_pressure;Samples;Min_cycle;Max_cycle;Signal;HPM_P1;HPM_P2
2023/01/27 00:00:08;;;;;;;8.13;2.63;;;;;;;;;;5061200;28;20507;-73
2023/01/27 00:02:34;;;;;;;9.73;2.50;;;;;;;;;;5055521;28;20051;-72
2023/01/27 00:05:03;;;;;;;9.63;3.13;;;;;;;;;;5071344;28;20136;-71
2023/01/27 00:07:30;;;;;;;9.20;2.65;;;;;;;;;;5085356;28;20106;-70
2023/01/27 00:09:56;;;;;;;8.90;2.63;;;;;;;;;;5086570;28;20049;-72
2023/01/27 00:15:09;;;;;;;9.15;2.53;;;;;;;;;;5084857;28;20063;-74
2023/01/27 00:17:35;;;;;;;10.40;2.88;;;;;;;;;;5084822;28;20061;-74
2023/01/27 00:20:02;;;;;;;10.65;2.80;;;;;;;;;;5084325;28;20049;-72
2023/01/27 00:25:14;;;;;;;9.25;3.85;;;;;;;;;;5078231;28;20053;-75
2023/01/27 00:27:41;;;;;;;7.97;3.05;;;;;;;;;;5086389;28;20052;-74
2023/01/27 00:30:08;;;;;;;8.95;3.17;;;;;;;;;;5059350;28;20136;-75
2023/01/27 00:35:19;;;;;;;10.73;4.07;;;;;;;;;;5056407;28;20051;-74
2023/01/27 00:37:45;;;;;;;9.20;3.15;;;;;;;;;;5080675;28;20045;-74
2023/01/27 00:40:12;;;;;;;8.65;3.40;;;;;;;;;;5066282;28;20057;-70
2023/01/27 00:42:39;;;;;;;10.95;3.95;;;;;;;;;;5063991;28;20514;-72
2023/01/27 00:47:51;;;;;;;14.90;5.03;;;;;;;;;;5086306;28;20064;-73
2023/01/27 00:50:18;;;;;;;12.35;4.40;;;;;;;;;;5085720;28;20531;-73
2023/01/27 00:52:45;;;;;;;9.82;4.13;;;;;;;;;;5079272;28;20156;-73
2023/01/27 00:55:14;;;;;;;11.65;4.63;;;;;;;;;;5065467;28;20506;-73
2023/01/27 00:57:41;;;;;;;11.27;4.72;;;;;;;;;;5083871;28;20510;-74
2023/01/27 01:00:08;;;;;;;11.88;4.57;;;;;;;;;;5085935;28;20052;-74
2023/01/27 01:02:35;;;;;;;10.57;4.53;;;;;;;;;;5077678;28;20523;-73
2023/01/27 01:05:01;;;;;;;16.10;5.72;;;;;;;;;;5065910;28;20053;-74
2023/01/27 01:07:28;;;;;;;9.73;5.15;;;;;;;;;;5077828;28;20048;-70
2023/01/27 01:09:55;;;;;;;14.57;5.10;;;;;;;;;;5085880;28;20056;-73
2023/01/27 01:12:21;;;;;;;11.02;5.55;;;;;;;;;;5073625;28;20049;-73
2023/01/27 01:14:47;;;;;;;11.55;5.80;;;;;;;;;;5065040;28;20134;-69
2023/01/27 01:17:14;;;;;;;11.68;5.20;;;;;;;;;;5063780;28;20053;-73
2023/01/27 01:19:40;;;;;;;16.15;5.63;;;;;;;;;;5078703;28;20056;-72
2023/01/27 01:22:06;;;;;;;13.80;5.28;;;;;;;;;;5084428;28;20495;-72
2023/01/27 01:24:32;;;;;;;13.55;5.72;;;;;;;;;;5065006;28;21027;-73
2023/01/27 01:26:59;;;;;;;16.15;5.65;;;;;;;;;;5057572;28;20053;-73
2023/01/27 01:29:25;;;;;;;20.70;6.28;;;;;;;;;;5064139;28;20137;-69
2023/01/27 01:31:51;;;;;;;10.45;5.20;;;;;;;;;;5064523;28;20057;-69
2023/01/27 01:34:18;;;;;;;9.80;5.53;;;;;;;;;;5081007;28;20055;-72
2023/01/27 01:36:44;;;;;;;12.98;6.10;;;;;;;;;;5084293;28;20483;-69
2023/01/27 01:39:10;;;;;;;14.70;5.53;;;;;;;;;;5082518;28;20052;-73
2023/01/27 01:41:37;;;;;;;14.27;5.55;;;;;;;;;;5084872;28;20173;-72
2023/01/27 01:44:23;;;;;;;10.75;5.40;;;;;;;;;;5085857;28;20535;-72
2023/01/27 01:46:50;;;;;;;12.88;5.40;;;;;;;;;;5073231;28;20768;-72
2023/01/27 01:49:17;;;;;;;11.35;5.18;;;;;;;;;;5085957;28;20052;-70
2023/01/27 01:51:45;;;;;;;13.23;6.07;;;;;;;;;;5085584;28;20519;-69
2023/01/27 01:54:15;;;;;;;13.43;5.72;;;;;;;;;;5072722;28;20136;-70
2023/01/27 01:56:48;;;;;;;14.68;5.57;;;;;;;;;;5084652;28;20059;-69
2023/01/27 01:59:18;;;;;;;7.47;4.85;;;;;;;;;;5073063;28;20092;-73
2023/01/27 02:01:44;;;;;;;15.45;7.32;;;;;;;;;;5068696;28;20604;-72
2023/01/27 02:04:14;;;;;;;9.68;5.25;;;;;;;;;;5081420;28;20048;-72
2023/01/27 02:06:46;;;;;;;11.25;5.40;;;;;;;;;;5082599;28;20053;-70
2023/01/27 02:09:13;;;;;;;10.15;5.35;;;;;;;;;;5083533;28;20057;-73
2023/01/27 02:11:39;;;;;;;13.18;5.45;;;;;;;;;;5084167;28;20060;-72
2023/01/27 02:14:06;;;;;;;10.07;5.70;;;;;;;;;;5084985;28;20172;-71
2023/01/27 02:16:32;;;;;;;10.85;5.65;;;;;;;;;;5083131;28;20048;-72
2023/01/27 02:18:58;;;;;;;10.68;5.28;;;;;;;;;;5085122;28;20525;-73
2023/01/27 02:21:25;;;;;;;13.73;6.72;;;;;;;;;;5053345;28;20092;-69
2023/01/27 02:23:55;;;;;;;13.63;6.22;;;;;;;;;;5056643;28;20061;-72
2023/01/27 02:26:30;;;;;;;14.32;6.07;;;;;;;;;;5052131;28;20107;-69
2023/01/27 02:29:03;;;;;;;12.15;6.43;;;;;;;;;;5060944;28;20136;-72
2023/01/27 02:31:29;;;;;;;14.90;6.05;;;;;;;;;;5063283;28;20041;-73
2023/01/27 02:34:15;;;;;;;13.57;6.78;;;;;;;;;;5045794;28;20045;-73
2023/01/27 02:36:41;;;;;;;;;;;;;;;;;;5050833;28;20096;-73
2023/01/27 02:39:09;;;;;;;19.60;6.43;;;;;;;;;;5080093;28;43526;-72
2023/01/27 02:41:38;;;;;;;11.88;7.10;;;;;;;;;;5081502;28;20140;-73
2023/01/27 02:44:05;;;;;;;11.18;6.70;;;;;;;;;;5084768;28;20936;-73
2023/01/27 02:46:32;;;;;;;11.10;6.78;;;;;;;;;;5083404;28;20462;-73
2023/01/27 02:48:58;;;;;;;14.95;7.35;;;;;;;;;;5084944;28;20048;-73
2023/01/27 02:51:24;;;;;;;14.07;6.82;;;;;;;;;;5084621;28;20525;-71
2023/01/27 02:53:51;;;;;;;19.13;8.57;;;;;;;;;;5073407;28;20052;-69
2023/01/27 02:56:17;;;;;;;13.98;8.25;;;;;;;;;;5044638;28;20053;-72
2023/01/27 02:58:43;;;;;;;17.60;9.40;;;;;;;;;;5052062;28;20053;-73
2023/01/27 03:01:10;;;;;;;13.25;8.52;;;;;;;;;;5074936;28;20056;-73
2023/01/27 03:03:42;;;;;;;14.05;8.23;;;;;;;;;;5087846;28;20052;-70
2023/01/27 03:06:09;;;;;;;13.07;7.88;;;;;;;;;;5086005;28;20138;-73
2023/01/27 03:08:36;;;;;;;15.30;8.02;;;;;;;;;;5084687;28;20049;-73
2023/01/27 03:11:02;;;;;;;14.63;8.45;;;;;;;;;;5080194;28;20053;-73
2023/01/27 03:13:28;;;;;;;11.90;7.75;;;;;;;;;;5067928;28;20087;-72
2023/01/27 03:18:46;;;;;;;10.57;7.22;;;;;;;;;;5072397;28;20059;-73
2023/01/27 03:21:13;;;;;;;16.55;8.57;;;;;;;;;;5086800;28;20048;-73
2023/01/27 03:23:39;;;;;;;14.45;7.30;;;;;;;;;;5072395;28;20514;-73
2023/01/27 03:26:06;;;;;;;11.10;8.00;;;;;;;;;;5067236;28;20045;-72
2023/01/27 03:28:32;;;;;;;11.05;8.13;;;;;;;;;;5066106;28;20053;-69
2023/01/27 03:31:00;;;;;;;11.50;7.70;;;;;;;;;;5066892;28;20041;-73
2023/01/27 03:33:27;;;;;;;10.98;7.57;;;;;;;;;;5075097;28;20055;-73
2023/01/27 03:46:53;;;;;;;9.68;6.35;;;;;;;;;;5046715;28;20056;-71
2023/01/27 03:49:20;;;;;;;9.02;5.70;;;;;;;;;;5064544;28;20775;-73
2023/01/27 03:51:46;;;;;;;11.48;5.72;;;;;;;;;;5061228;28;20084;-73
2023/01/27 03:54:13;;;;;;;10.43;6.03;;;;;;;;;;5046758;28;20046;-71
2023/01/27 03:56:39;;;;;;;10.13;6.18;;;;;;;;;;5073707;28;20056;-72
2023/01/27 03:59:05;;;;;;;9.88;5.97;;;;;;;;;;5086121;28;20044;-74
2023/01/27 04:01:31;;;;;;;8.65;5.28;;;;;;;;;;5082089;28;20053;-69
2023/01/27 04:06:53;;;;;;;12.33;5.20;;;;;;;;;;5066858;28;20152;-73
2023/01/27 04:09:21;;;;;;;7.68;4.93;;;;;;;;;;5065264;28;20493;-71
2023/01/27 04:11:53;;;;;;;9.15;5.05;;;;;;;;;;5065760;28;20056;-72
2023/01/27 04:14:24;;;;;;;6.30;4.10;;;;;;;;;;5066465;28;20533;-73
2023/01/27 04:16:52;;;;;;;8.40;4.78;;;;;;;;;;5064739;28;20257;-73
2023/01/27 04:19:18;;;;;;;7.60;4.32;;;;;;;;;;5064454;28;20049;-72
2023/01/27 04:21:45;;;;;;;6.55;4.57;;;;;;;;;;5066339;28;20133;-72
2023/01/27 04:24:23;;;;;;;6.85;4.28;;;;;;;;;;5075298;28;20049;-72
2023/01/27 04:26:54;;;;;;;7.47;4.85;;;;;;;;;;5085118;28;20510;-74
2023/01/27 04:29:21;;;;;;;8.10;4.85;;;;;;;;;;5086348;28;20055;-72
2023/01/27 04:31:48;;;;;;;7.07;4.72;;;;;;;;;;5085085;28;20056;-73
2023/01/27 04:34:15;;;;;;;9.35;5.10;;;;;;;;;;5086805;28;20056;-73
2023/01/27 04:36:41;;;;;;;7.95;5.60;;;;;;;;;;5070523;28;20053;-73
2023/01/27 04:39:08;;;;;;;6.30;4.20;;;;;;;;;;5082621;28;20499;-70
2023/01/27 04:41:35;;;;;;;7.75;4.53;;;;;;;;;;5086454;28;20618;-73
2023/01/27 04:44:02;;;;;;;9.27;5.03;;;;;;;;;;5085894;28;20164;-72
2023/01/27 04:46:29;;;;;;;6.50;4.30;;;;;;;;;;5078487;28;20487;-74
2023/01/27 04:48:55;;;;;;;7.88;4.68;;;;;;;;;;5066042;28;20526;-73
2023/01/27 04:51:21;;;;;;;6.75;4.28;;;;;;;;;;5067346;28;20052;-69
2023/01/27 04:53:48;;;;;;;5.22;4.07;;;;;;;;;;5072600;28;20057;-73
2023/01/27 04:56:23;;;;;;;7.05;4.20;;;;;;;;;;5054904;28;20075;-73
2023/01/27 04:58:49;;;;;;;5.50;4.05;;;;;;;;;;5052291;28;20586;-73
2023/01/27 05:01:16;;;;;;;5.65;4.03;;;;;;;;;;5076906;28;20053;-72
2023/01/27 05:03:43;;;;;;;5.10;3.75;;;;;;;;;;5086520;28;20060;-73
2023/01/27 05:06:09;;;;;;;4.60;3.42;;;;;;;;;;5077667;28;20115;-69
2023/01/27 05:08:36;;;;;;;4.97;3.92;;;;;;;;;;5065021;28;20060;-73
2023/01/27 05:11:02;;;;;;;6.85;4.68;;;;;;;;;;5070154;28;20056;-72
2023/01/27 05:13:29;;;;;;;7.38;3.70;;;;;;;;;;5085750;28;20063;-72
2023/01/27 05:16:05;;;;;;;4.97;3.30;;;;;;;;;;5080120;28;20055;-72
2023/01/27 05:18:32;;;;;;;3.97;3.17;;;;;;;;;;5085087;28;20140;-73
2023/01/27 05:20:59;;;;;;;4.18;3.17;;;;;;;;;;5085281;28;20040;-73
2023/01/27 05:23:35;;;;;;;6.13;3.65;;;;;;;;;;5083247;28;20519;-73
2023/01/27 05:26:01;;;;;;;;;;;;;;;;;;5086321;28;20040;-72
2023/01/27 05:28:28;;;;;;;4.55;3.17;;;;;;;;;;5066928;28;45430;-71
2023/01/27 05:30:59;;;;;;;4.72;3.40;;;;;;;;;;5084538;28;20135;-69
2023/01/27 05:33:26;;;;;;;5.28;3.42;;;;;;;;;;5082329;28;20510;-73
2023/01/27 05:35:52;;;;;;;4.88;3.50;;;;;;;;;;5084671;28;20061;-73
2023/01/27 05:38:18;;;;;;;6.05;3.75;;;;;;;;;;5084304;28;20692;-73
2023/01/27 05:40:45;;;;;;;5.38;3.83;;;;;;;;;;5085469;28;20130;-74
2023/01/27 05:43:11;;;;;;;4.70;3.92;;;;;;;;;;5079256;28;20049;-73
2023/01/27 05:45:37;;;;;;;3.97;3.15;;;;;;;;;;5063541;28;21088;-73
2023/01/27 05:48:04;;;;;;;5.05;3.13;;;;;;;;;;5062242;28;20053;-70
2023/01/27 05:50:30;;;;;;;4.13;3.13;;;;;;;;;;5063911;28;20053;-73
2023/01/27 05:52:56;;;;;;;3.88;3.17;;;;;;;;;;5081517;28;20091;-73
2023/01/27 05:55:23;;;;;;;3.80;2.80;;;;;;;;;;5085452;28;20135;-70
2023/01/27 05:57:49;;;;;;;3.22;2.90;;;;;;;;;;5069465;28;20088;-72
2023/01/27 06:00:16;;;;;;;3.38;2.85;;;;;;;;;;5076669;28;20516;-73
2023/01/27 06:02:42;;;;;;;3.95;3.08;;;;;;;;;;5056186;28;20052;-70
2023/01/27 06:05:08;;;;;;;5.05;2.92;;;;;;;;;;5085415;28;20091;-72
2023/01/27 06:07:35;;;;;;;5.53;2.35;;;;;;;;;;5084947;28;20063;-73
2023/01/27 06:10:01;;;;;;;5.05;3.10;;;;;;;;;;5084160;28;20063;-69
2023/01/27 06:12:27;;;;;;;2.67;2.42;;;;;;;;;;5058407;28;20057;-72
2023/01/27 06:14:56;;;;;;;3.55;2.58;;;;;;;;;;5083748;28;20056;-72
2023/01/27 06:17:23;;;;;;;2.63;2.35;;;;;;;;;;5077756;28;20069;-72
2023/01/27 06:19:49;;;;;;;3.08;2.10;;;;;;;;;;5064155;28;20533;-73
2023/01/27 06:22:15;;;;;;;2.60;2.20;;;;;;;;;;5064987;28;20099;-71
2023/01/27 06:24:43;;;;;;;2.90;2.55;;;;;;;;;;5064867;28;20534;-71
2023/01/27 06:27:09;;;;;;;2.97;2.22;;;;;;;;;;5064905;28;20053;-72
2023/01/27 06:29:36;;;;;;;4.22;2.40;;;;;;;;;;5064612;28;20049;-72
2023/01/27 06:32:02;;;;;;;2.78;2.45;;;;;;;;;;5059620;28;20052;-71
2023/01/27 06:34:28;;;;;;;5.05;2.70;;;;;;;;;;5066730;28;20053;-72
2023/01/27 06:36:55;;;;;;;4.10;2.75;;;;;;;;;;5057319;28;20054;-72
2023/01/27 06:39:21;;;;;;;5.50;2.70;;;;;;;;;;5063529;28;20051;-69
2023/01/27 06:41:48;;;;;;;4.07;2.42;;;;;;;;;;5049538;28;20134;-72
2023/01/27 06:44:14;;;;;;;5.05;2.40;;;;;;;;;;5069845;28;20049;-73
2023/01/27 06:46:40;;;;;;;3.60;2.47;;;;;;;;;;5066342;28;20674;-70
2023/01/27 06:49:07;;;;;;;3.13;2.55;;;;;;;;;;5084547;28;20080;-71
2023/01/27 06:51:34;;;;;;;6.03;2.38;;;;;;;;;;5076530;28;20053;-71
2023/01/27 06:54:00;;;;;;;3.83;2.17;;;;;;;;;;5065768;28;20057;-71
2023/01/27 06:56:26;;;;;;;3.17;2.53;;;;;;;;;;5073850;28;20053;-68
2023/01/27 06:58:52;;;;;;;3.47;2.63;;;;;;;;;;5072423;28;20705;-72
2023/01/27 07:01:20;;;;;;;3.30;2.80;;;;;;;;;;5073688;28;20053;-71
2023/01/27 07:03:46;;;;;;;7.65;3.17;;;;;;;;;;5083985;28;20053;-69
2023/01/27 07:06:14;;;;;;;8.75;3.22;;;;;;;;;;5068094;28;20084;-70
2023/01/27 07:08:44;;;;;;;3.67;2.85;;;;;;;;;;5063907;28;20053;-71
2023/01/27 07:11:10;;;;;;;4.63;3.08;;;;;;;;;;5068817;28;20049;-72
2023/01/27 07:13:37;;;;;;;5.18;3.13;;;;;;;;;;5076649;28;20110;-72
2023/01/27 07:16:03;;;;;;;2.70;2.33;;;;;;;;;;5082465;28;20522;-71
2023/01/27 07:18:30;;;;;;;5.03;2.70;;;;;;;;;;5084102;28;20068;-69
2023/01/27 07:20:56;;;;;;;2.80;2.50;;;;;;;;;;5070641;28;20059;-72
2023/01/27 07:23:23;;;;;;;2.78;2.50;;;;;;;;;;5076940;28;20541;-70
2023/01/27 07:25:49;;;;;;;3.05;2.72;;;;;;;;;;5060830;28;20053;-69
2023/01/27 07:28:15;;;;;;;5.78;3.03;;;;;;;;;;5063123;28;20086;-71
2023/01/27 07:30:42;;;;;;;3.03;2.20;;;;;;;;;;5063268;28;20048;-72
2023/01/27 07:33:11;;;;;;;3.47;2.63;;;;;;;;;;5055837;28;20049;-72
2023/01/27 07:35:37;;;;;;;2.60;2.17;;;;;;;;;;5050746;28;20053;-72
2023/01/27 07:38:05;;;;;;;5.07;2.17;;;;;;;;;;5063074;28;20584;-70
2023/01/27 07:40:31;;;;;;;3.88;2.60;;;;;;;;;;5062428;28;20053;-71
2023/01/27 07:42:58;;;;;;;3.83;2.80;;;;;;;;;;5072939;28;20412;-69
2023/01/27 07:45:25;;;;;;;4.50;2.42;;;;;;;;;;5062336;28;20116;-71
2023/01/27 07:47:51;;;;;;;3.50;2.63;;;;;;;;;;5063460;28;20069;-71
2023/01/27 07:50:20;;;;;;;3.17;1.98;;;;;;;;;;5071694;28;20057;-71
2023/01/27 07:52:47;;;;;;;3.47;2.60;;;;;;;;;;5082328;28;20544;-70
2023/01/27 07:55:13;;;;;;;2.15;1.95;;;;;;;;;;5083811;28;20048;-71
2023/01/27 07:57:40;;;;;;;3.03;2.30;;;;;;;;;;5076084;28;20882;-70
2023/01/27 08:00:07;;;;;;;6.00;1.92;;;;;;;;;;5066576;28;20443;-75
2023/01/27 08:02:33;;;;;;;2.67;2.13;;;;;;;;;;5057596;28;20481;-72
2023/01/27 08:04:59;;;;;;;2.75;2.20;;;;;;;;;;5068932;28;20049;-72
2023/01/27 08:07:26;;;;;;;2.53;1.98;;;;;;;;;;5056317;28;20053;-69
2023/01/27 08:09:53;;;;;;;4.38;2.50;;;;;;;;;;5062968;28;20057;-74
2023/01/27 08:12:20;;;;;;;4.97;2.70;;;;;;;;;;5059321;28;21957;-73
2023/01/27 08:14:47;;;;;;;3.35;1.98;;;;;;;;;;5062707;28;20068;-71
2023/01/27 08:17:13;;;;;;;5.10;1.92;;;;;;;;;;5064691;28;20049;-72
2023/01/27 08:19:39;;;;;;;2.95;1.88;;;;;;;;;;5062724;28;20053;-72
2023/01/27 08:22:05;;;;;;;3.13;1.95;;;;;;;;;;5062638;28;20049;-74
2023/01/27 08:24:32;;;;;;;8.02;2.40;;;;;;;;;;5063300;28;20056;-71
2023/01/27 08:26:58;;;;;;;2.72;1.90;;;;;;;;;;5060031;28;20057;-71
2023/01/27 08:29:24;;;;;;;4.47;2.33;;;;;;;;;;5069084;28;20044;-70
2023/01/27 08:31:51;;;;;;;2.58;1.83;;;;;;;;;;5063696;28;20124;-68
2023/01/27 08:34:17;;;;;;;2.33;1.70;;;;;;;;;;5080030;28;20514;-72
2023/01/27 08:36:44;;;;;;;5.20;3.17;;;;;;;;;;5060724;28;20077;-70
2023/01/27 08:39:10;;;;;;;5.47;2.38;;;;;;;;;;5059558;28;20358;-70
2023/01/27 08:41:37;;;;;;;5.53;2.45;;;;;;;;;;5061652;28;20061;-69
2023/01/27 08:44:03;;;;;;;4.68;2.25;;;;;;;;;;5060455;28;20149;-69
2023/01/27 08:46:30;;;;;;;7.90;2.20;;;;;;;;;;5061428;28;20359;-70
2023/01/27 08:48:56;;;;;;;3.65;2.10;;;;;;;;;;5061996;28;20053;-73
2023/01/27 08:51:22;;;;;;;3.72;2.30;;;;;;;;;;5058430;28;20391;-72
2023/01/27 08:53:49;;;;;;;3.47;2.38;;;;;;;;;;5058842;28;20450;-69
2023/01/27 08:56:16;;;;;;;6.32;1.95;;;;;;;;;;5055575;28;20132;-69
2023/01/27 08:58:44;;;;;;;4.30;2.20;;;;;;;;;;5059179;28;20531;-72
2023/01/27 09:01:11;;;;;;;2.53;1.75;;;;;;;;;;5066386;28;20052;-69
2023/01/27 09:03:37;;;;;;;4.38;2.20;;;;;;;;;;5071045;28;20056;-72
2023/01/27 09:06:06;;;;;;;3.28;2.47;;;;;;;;;;5082172;28;20057;-72
2023/01/27 09:08:32;;;;;;;4.55;2.45;;;;;;;;;;5069440;28;20045;-71
2023/01/27 09:10:58;;;;;;;3.90;2.10;;;;;;;;;;5061853;28;20063;-71
2023/01/27 09:13:27;;;;;;;2.72;2.13;;;;;;;;;;5061095;28;20057;-68
2023/01/27 09:15:53;;;;;;;3.00;2.15;;;;;;;;;;5060783;28;20582;-72
2023/01/27 09:18:19;;;;;;;2.58;1.73;;;;;;;;;;5061520;28;20135;-71
2023/01/27 09:20:46;;;;;;;2.75;1.98;;;;;;;;;;5064498;28;20041;-71
2023/01/27 09:23:12;;;;;;;2.70;2.03;;;;;;;;;;5061886;28;20431;-69
2023/01/27 09:25:39;;;;;;;2.50;1.85;;;;;;;;;;5071514;28;20053;-69
2023/01/27 09:28:08;;;;;;;3.40;2.20;;;;;;;;;;5072253;28;20077;-71
2023/01/27 09:30:35;;;;;;;3.85;1.98;;;;;;;;;;5061110;28;20053;-71
2023/01/27 09:33:01;;;;;;;3.90;2.42;;;;;;;;;;5061135;28;20517;-72
2023/01/27 09:35:39;;;;;;;8.82;2.60;;;;;;;;;;5072408;28;20154;-68
2023/01/27 09:38:05;;;;;;;3.47;2.25;;;;;;;;;;5070503;28;20572;-69
2023/01/27 09:40:50;;;;;;;4.90;2.20;;;;;;;;;;5062089;28;20458;-69
2023/01/27 09:43:23;;;;;;;4.43;2.38;;;;;;;;;;5069794;28;20048;-68
2023/01/27 09:46:10;;;;;;;4.18;2.15;;;;;;;;;;5066335;28;20138;-69
2023/01/27 09:48:55;;;;;;;4.22;2.42;;;;;;;;;;5065900;28;20048;-71
2023/01/27 09:51:30;;;;;;;2.50;2.30;;;;;;;;;;5071533;28;20053;-71
2023/01/27 09:54:11;;;;;;;4.07;2.50;;;;;;;;;;5071585;28;20067;-73
2023/01/27 09:56:56;;;;;;;5.30;2.45;;;;;;;;;;5074508;28;20055;-71
2023/01/27 09:59:26;;;;;;;4.03;2.38;;;;;;;;;;5061645;28;20550;-70
2023/01/27 10:02:01;;;;;;;5.15;2.90;;;;;;;;;;5072160;28;20045;-73
2023/01/27 10:04:31;;;;;;;3.88;2.63;;;;;;;;;;5061868;28;20054;-71
2023/01/27 10:06:57;;;;;;;6.82;2.83;;;;;;;;;;5078195;28;20045;-69
2023/01/27 10:09:23;;;;;;;4.00;2.83;;;;;;;;;;5066816;28;20056;-73
2023/01/27 10:12:04;;;;;;;3.95;2.60;;;;;;;;;;5063973;28;20504;-69
2023/01/27 10:14:49;;;;;;;4.45;2.65;;;;;;;;;;5078385;28;20067;-73
2023/01/27 10:17:24;;;;;;;4.47;2.65;;;;;;;;;;5082892;28;20056;-71
2023/01/27 10:19:54;;;;;;;2.83;2.30;;;;;;;;;;5065534;28;20059;-68
2023/01/27 10:22:20;;;;;;;4.38;2.42;;;;;;;;;;5061715;28;20064;-71
2023/01/27 10:24:58;;;;;;;3.63;2.65;;;;;;;;;;5065387;28;20049;-69
2023/01/27 10:27:25;;;;;;;5.47;2.80;;;;;;;;;;5061905;28;20057;-68
2023/01/27 10:29:51;;;;;;;4.75;2.80;;;;;;;;;;5064310;28;20057;-69
2023/01/27 10:32:25;;;;;;;3.25;2.63;;;;;;;;;;5064371;28;20049;-72
2023/01/27 10:35:04;;;;;;;2.83;2.45;;;;;;;;;;5063170;28;20057;-72
2023/01/27 10:37:33;;;;;;;4.30;2.63;;;;;;;;;;5080536;28;20194;-72
2023/01/27 10:39:59;;;;;;;6.35;2.38;;;;;;;;;;5069741;28;20560;-71
2023/01/27 10:42:34;;;;;;;2.72;2.45;;;;;;;;;;5060009;28;20146;-71
2023/01/27 10:45:01;;;;;;;3.80;2.55;;;;;;;;;;5061585;28;20049;-69
2023/01/27 10:47:38;;;;;;;5.80;3.35;;;;;;;;;;5064761;28;20060;-68
2023/01/27 10:50:34;;;;;;;7.65;3.13;;;;;;;;;;5064026;28;20569;-70
2023/01/27 10:53:21;;;;;;;3.58;2.67;;;;;;;;;;5048682;28;20140;-72
2023/01/27 10:55:51;;;;;;;5.93;2.70;;;;;;;;;;5063580;28;20051;-71
2023/01/27 10:58:19;;;;;;;3.05;2.60;;;;;;;;;;5066692;28;20053;-68
2023/01/27 11:00:47;;;;;;;4.03;2.80;;;;;;;;;;5068431;28;20049;-69
2023/01/27 11:03:37;;;;;;;4.93;2.75;;;;;;;;;;5058324;28;20048;-69
2023/01/27 11:06:07;;;;;;;5.20;2.60;;;;;;;;;;5065672;28;20083;-70
2023/01/27 11:08:35;;;;;;;3.08;2.67;;;;;;;;;;5063230;28;20045;-71
2023/01/27 11:13:52;;;;;;;5.97;2.70;;;;;;;;;;5050113;28;20504;-70
2023/01/27 11:16:18;;;;;;;3.03;2.47;;;;;;;;;;5064336;28;20126;-71
2023/01/27 11:18:48;;;;;;;4.78;3.05;;;;;;;;;;5066137;28;20591;-70
2023/01/27 11:21:17;;;;;;;5.25;2.83;;;;;;;;;;5079917;28;20087;-72
2023/01/27 11:23:47;;;;;;;4.10;3.38;;;;;;;;;;5077144;28;20057;-73
2023/01/27 11:26:17;;;;;;;4.05;3.15;;;;;;;;;;5063702;28;20053;-72
2023/01/27 11:28:55;;;;;;;3.80;3.03;;;;;;;;;;5063486;28;20168;-70
2023/01/27 11:31:31;;;;;;;6.78;3.40;;;;;;;;;;5063186;28;20041;-70
2023/01/27 11:34:17;;;;;;;4.80;3.35;;;;;;;;;;5063179;28;20060;-72
2023/01/27 11:36:44;;;;;;;3.88;3.33;;;;;;;;;;5062819;28;20118;-72
2023/01/27 11:39:11;;;;;;;5.15;2.92;;;;;;;;;;5067137;28;20056;-70
2023/01/27 11:41:39;;;;;;;4.00;3.03;;;;;;;;;;5070909;28;20136;-69
2023/01/27 11:44:11;;;;;;;2.78;2.22;;;;;;;;;;5065179;28;20045;-70
2023/01/27 11:46:37;;;;;;;2.90;2.40;;;;;;;;;;5051753;28;20515;-70
2023/01/27 11:49:05;;;;;;;5.57;2.80;;;;;;;;;;5061172;28;20486;-71
2023/01/27 11:51:34;;;;;;;3.75;2.75;;;;;;;;;;5061910;28;20508;-71
2023/01/27 11:54:09;;;;;;;5.72;2.72;;;;;;;;;;5061064;28;20053;-69
2023/01/27 11:56:36;;;;;;;4.15;2.75;;;;;;;;;;5064445;28;20064;-69
2023/01/27 11:59:29;;;;;;;6.05;2.78;;;;;;;;;;5069751;28;20049;-69
2023/01/27 12:01:57;;;;;;;4.28;2.80;;;;;;;;;;5054504;28;20050;-68
2023/01/27 12:04:30;;;;;;;3.50;2.90;;;;;;;;;;5058775;28;20053;-71
2023/01/27 12:07:09;;;;;;;4.75;2.40;;;;;;;;;;5061367;28;20144;-70
2023/01/27 12:09:37;;;;;;;2.88;2.40;;;;;;;;;;5061275;28;20051;-71
2023/01/27 12:12:14;;;;;;;4.97;2.72;;;;;;;;;;5046656;28;20053;-73
2023/01/27 12:14:53;;;;;;;2.90;2.58;;;;;;;;;;5064168;28;20775;-72
2023/01/27 12:17:23;;;;;;;6.65;2.67;;;;;;;;;;5064004;28;20053;-69
2023/01/27 12:19:52;;;;;;;5.15;2.90;;;;;;;;;;5061502;28;20060;-71
2023/01/27 12:22:38;;;;;;;4.45;3.58;;;;;;;;;;5063611;28;20145;-68
2023/01/27 12:25:13;;;;;;;4.78;3.10;;;;;;;;;;5075655;28;20171;-68
2023/01/27 12:27:45;;;;;;;6.20;3.00;;;;;;;;;;5070019;28;20056;-70
2023/01/27 12:30:18;;;;;;;3.35;2.75;;;;;;;;;;5065797;28;20406;-69
2023/01/27 12:32:46;;;;;;;6.43;3.22;;;;;;;;;;5071980;28;20053;-69
2023/01/27 12:35:21;;;;;;;2.97;2.45;;;;;;;;;;5061416;28;20530;-71
2023/01/27 12:37:48;;;;;;;4.43;3.13;;;;;;;;;;5063267;28;20060;-70
2023/01/27 12:40:19;;;;;;;4.05;2.70;;;;;;;;;;5075232;28;20232;-70
2023/01/27 12:42:47;;;;;;;5.40;3.08;;;;;;;;;;5062359;28;20049;-69
2023/01/27 12:45:22;;;;;;;4.85;2.80;;;;;;;;;;5062860;28;20049;-71
2023/01/27 12:48:15;;;;;;;3.45;2.55;;;;;;;;;;5065893;28;20062;-72
2023/01/27 12:50:52;;;;;;;3.13;2.17;;;;;;;;;;5071737;28;20049;-69
2023/01/27 12:53:20;;;;;;;3.90;2.55;;;;;;;;;;5073107;28;20064;-71
2023/01/27 12:55:46;;;;;;;4.85;2.08;;;;;;;;;;5069243;28;20045;-72
2023/01/27 12:58:22;;;;;;;3.80;2.25;;;;;;;;;;5070866;28;20596;-71
2023/01/27 13:00:48;;;;;;;4.72;2.38;;;;;;;;;;5063944;28;20660;-71
2023/01/27 13:03:15;;;;;;;4.00;2.42;;;;;;;;;;5072512;28;20082;-69
2023/01/27 13:05:42;;;;;;;2.72;2.13;;;;;;;;;;5065013;28;20059;-69
2023/01/27 13:08:16;;;;;;;2.67;2.28;;;;;;;;;;5068886;28;20059;-67
2023/01/27 13:10:49;;;;;;;3.95;2.58;;;;;;;;;;5063930;28;20580;-68
2023/01/27 13:13:23;;;;;;;3.90;2.60;;;;;;;;;;5068876;28;20473;-69
2023/01/27 13:15:51;;;;;;;2.70;2.20;;;;;;;;;;5067994;28;20053;-70
2023/01/27 13:18:22;;;;;;;3.80;3.05;;;;;;;;;;5070259;28;20512;-70
2023/01/27 13:21:10;;;;;;;3.97;2.55;;;;;;;;;;5064782;28;20052;-71
2023/01/27 13:23:37;;;;;;;3.67;2.53;;;;;;;;;;5058769;28;20130;-70
2023/01/27 13:26:09;;;;;;;3.42;2.33;;;;;;;;;;5056132;28;20088;-70
2023/01/27 13:28:38;;;;;;;4.00;2.80;;;;;;;;;;5066323;28;20586;-71
2023/01/27 13:31:23;;;;;;;3.53;2.78;;;;;;;;;;5081432;28;20048;-66
2023/01/27 13:33:53;;;;;;;2.83;2.35;;;;;;;;;;5058229;28;20892;-69
2023/01/27 13:36:25;;;;;;;3.47;2.67;;;;;;;;;;5050192;28;20044;-73
2023/01/27 13:39:10;;;;;;;3.20;2.50;;;;;;;;;;5062278;28;20509;-73
2023/01/27 13:41:50;;;;;;;3.50;2.20;;;;;;;;;;5072597;28;20049;-72
2023/01/27 13:44:29;;;;;;;2.50;2.20;;;;;;;;;;5059773;28;20107;-70
2023/01/27 13:46:59;;;;;;;3.80;2.55;;;;;;;;;;5069313;28;20426;-70
2023/01/27 13:49:32;;;;;;;3.20;2.45;;;;;;;;;;5065052;28;20060;-71
2023/01/27 13:51:58;;;;;;;2.92;2.30;;;;;;;;;;5068049;28;20057;-69
2023/01/27 13:54:24;;;;;;;2.90;2.13;;;;;;;;;;5063498;28;20049;-67
2023/01/27 13:56:56;;;;;;;2.35;1.95;;;;;;;;;;5062171;28;20053;-68
2023/01/27 13:59:23;;;;;;;2.63;2.25;;;;;;;;;;5061922;28;20056;-68
2023/01/27 14:01:58;;;;;;;4.55;2.50;;;;;;;;;;5060422;28;20140;-68
2023/01/27 14:04:30;;;;;;;5.22;2.67;;;;;;;;;;5058937;28;20050;-67
2023/01/27 14:07:06;;;;;;;3.55;2.67;;;;;;;;;;5060538;28;20541;-69
2023/01/27 14:09:51;;;;;;;2.47;2.00;;;;;;;;;;5077130;28;20052;-67
2023/01/27 14:12:25;;;;;;;2.92;2.10;;;;;;;;;;5061332;28;20046;-71
2023/01/27 14:15:04;;;;;;;3.15;2.33;;;;;;;;;;5069456;28;20049;-68
2023/01/27 14:17:38;;;;;;;3.15;2.20;;;;;;;;;;5066947;28;20092;-70
2023/01/27 14:20:34;;;;;;;3.25;2.78;;;;;;;;;;5060696;28;20049;-70
2023/01/27 14:23:19;;;;;;;4.10;2.53;;;;;;;;;;5057565;28;20092;-70
2023/01/27 14:25:52;;;;;;;3.78;2.17;;;;;;;;;;5078175;28;20053;-71
2023/01/27 14:28:24;;;;;;;3.38;2.10;;;;;;;;;;5068611;28;20053;-71
2023/01/27 14:30:54;;;;;;;3.60;2.67;;;;;;;;;;5061147;28;20079;-67
2023/01/27 14:33:41;;;;;;;2.00;1.80;;;;;;;;;;5060782;28;20045;-70
2023/01/27 14:36:12;;;;;;;2.80;1.98;;;;;;;;;;5059179;28;20056;-70
2023/01/27 14:38:45;;;;;;;4.72;2.63;;;;;;;;;;5075983;28;20053;-69
2023/01/27 14:41:16;;;;;;;4.13;2.10;;;;;;;;;;5059312;28;20041;-71
2023/01/27 14:43:49;;;;;;;3.60;2.45;;;;;;;;;;5059543;28;20287;-68
2023/01/27 14:46:27;;;;;;;3.20;2.47;;;;;;;;;;5064724;28;20088;-69
2023/01/27 14:48:53;;;;;;;;;;;;;;;;;;5060915;28;20088;-71
2023/01/27 14:51:23;;;;;;;4.47;2.33;;;;;;;;;;5057849;28;46765;-68
2023/01/27 14:54:02;;;;;;;3.40;2.50;;;;;;;;;;5054764;28;20041;-69
2023/01/27 14:56:28;;;;;;;2.67;2.00;;;;;;;;;;5059722;28;20523;-69
2023/01/27 14:59:27;;;;;;;3.88;2.40;;;;;;;;;;5067944;28;20053;-71
2023/01/27 15:02:20;;;;;;;3.45;2.40;;;;;;;;;;5018000;28;20050;-69
2023/01/27 15:04:52;;;;;;;3.67;2.97;;;;;;;;;;4997308;28;20053;-71
2023/01/27 15:07:39;;;;;;;5.43;2.70;;;;;;;;;;5014193;28;20117;-71
2023/01/27 15:10:14;;;;;;;3.80;2.97;;;;;;;;;;5021086;28;20528;-71
2023/01/27 15:13:01;;;;;;;3.92;2.63;;;;;;;;;;5039210;28;20049;-71
2023/01/27 15:15:45;;;;;;;3.90;2.78;;;;;;;;;;5030559;28;20050;-67
2023/01/27 15:18:35;;;;;;;3.83;2.90;;;;;;;;;;4999335;28;20054;-69
2023/01/27 15:21:17;;;;;;;4.28;2.90;;;;;;;;;;5003992;28;20046;-69
2023/01/27 15:23:46;;;;;;;3.70;2.72;;;;;;;;;;5032219;28;20689;-69
2023/01/27 15:26:15;;;;;;;4.57;2.95;;;;;;;;;;5037495;28;20053;-67